createdAt,value
2023-05-15T00:00:22.582Z,16.18
2023-05-15T00:01:22.561Z,16.16
2023-05-15T00:02:22.777Z,16.15
2023-05-15T00:03:21.916Z,16.12
2023-05-15T00:04:21.901Z,16.10
2023-05-15T00:05:21.974Z,16.08
2023-05-15T00:06:21.834Z,16.07
2023-05-15T00:07:21.828Z,16.05
2023-05-15T00:08:22.509Z,16.03
2023-05-15T00:09:21.807Z,16.01
2023-05-15T00:10:21.820Z,16.00
2023-05-15T00:11:21.804Z,15.99
2023-05-15T00:12:21.770Z,15.98
2023-05-15T00:13:22.444Z,15.98
2023-05-15T00:14:22.652Z,15.98
2023-05-15T00:15:21.747Z,15.98
2023-05-15T00:16:22.444Z,15.98
2023-05-15T00:17:21.722Z,15.98
2023-05-15T00:18:21.743Z,15.98
2023-05-15T00:19:22.379Z,15.98
2023-05-15T00:20:21.684Z,15.99
2023-05-15T00:21:21.682Z,15.99
2023-05-15T00:22:21.663Z,16.00
2023-05-15T00:23:21.656Z,16.01
2023-05-15T00:24:22.309Z,16.01
2023-05-15T00:25:21.629Z,16.02
2023-05-15T00:26:21.619Z,16.02
2023-05-15T00:27:21.599Z,16.03
2023-05-15T00:28:21.618Z,16.05
2023-05-15T00:29:22.251Z,16.05
2023-05-15T00:30:22.264Z,16.06
2023-05-15T00:31:22.269Z,16.07
2023-05-15T00:32:21.602Z,16.07
2023-05-15T00:33:21.561Z,16.08
2023-05-15T00:34:21.541Z,16.09
2023-05-15T00:35:21.551Z,16.08
2023-05-15T00:36:22.200Z,16.07
2023-05-15T00:37:21.498Z,16.07
2023-05-15T00:38:22.167Z,16.05
2023-05-15T00:39:22.170Z,16.05
2023-05-15T00:40:21.496Z,16.03
2023-05-15T00:41:21.462Z,16.01
2023-05-15T00:42:22.129Z,16.01
2023-05-15T00:43:21.454Z,15.99
2023-05-15T00:44:21.434Z,15.98
2023-05-15T00:45:22.141Z,15.97
2023-05-15T00:46:22.369Z,15.98
2023-05-15T00:47:21.445Z,15.97
2023-05-15T00:48:21.383Z,15.97
2023-05-15T00:49:21.383Z,15.97
2023-05-15T00:50:22.055Z,15.96
2023-05-15T00:51:22.049Z,15.95
2023-05-15T00:52:21.360Z,15.95
2023-05-15T00:53:22.010Z,15.93
2023-05-15T00:54:22.010Z,15.92
2023-05-15T00:55:21.314Z,15.91
2023-05-15T00:56:21.322Z,15.89
2023-05-15T00:57:21.319Z,15.88
2023-05-15T00:58:21.296Z,15.86
2023-05-15T00:59:21.251Z,15.85
2023-05-15T01:00:21.998Z,15.83
2023-05-15T01:01:21.984Z,15.82
2023-05-15T01:02:21.959Z,15.79
2023-05-15T01:03:22.212Z,15.77
2023-05-15T01:04:22.138Z,15.75
2023-05-15T01:05:21.968Z,15.73
2023-05-15T01:06:21.877Z,15.71
2023-05-15T01:07:21.876Z,15.70
2023-05-15T01:08:21.860Z,15.69
2023-05-15T01:09:21.835Z,15.67
2023-05-15T01:10:22.129Z,15.67
2023-05-15T01:11:22.096Z,15.65
2023-05-15T01:12:21.117Z,15.64
2023-05-15T01:13:22.072Z,15.63
2023-05-15T01:14:22.143Z,15.61
2023-05-15T01:15:21.809Z,15.60
2023-05-15T01:16:21.774Z,15.59
2023-05-15T01:17:21.065Z,15.58
2023-05-15T01:18:21.120Z,15.57
2023-05-15T01:19:21.279Z,15.56
2023-05-15T01:20:21.709Z,15.55
2023-05-15T01:21:21.962Z,15.53
2023-05-15T01:22:21.692Z,15.51
2023-05-15T01:23:21.943Z,15.52
2023-05-15T01:24:21.665Z,15.50
2023-05-15T01:25:21.726Z,15.49
2023-05-15T01:26:21.650Z,15.48
2023-05-15T01:27:21.912Z,15.48
2023-05-15T01:28:21.899Z,15.46
2023-05-15T01:29:21.601Z,15.45
2023-05-15T01:30:21.886Z,15.44
2023-05-15T01:31:21.870Z,15.42
2023-05-15T01:32:21.709Z,15.41
2023-05-15T01:33:21.552Z,15.39
2023-05-15T01:34:21.599Z,15.38
2023-05-15T01:35:21.822Z,15.38
2023-05-15T01:36:21.815Z,15.37
2023-05-15T01:37:21.534Z,15.36
2023-05-15T01:38:21.807Z,15.36
2023-05-15T01:39:21.795Z,15.34
2023-05-15T01:40:21.756Z,15.34
2023-05-15T01:41:21.498Z,15.33
2023-05-15T01:42:21.729Z,15.33
2023-05-15T01:43:21.739Z,15.32
2023-05-15T01:44:21.707Z,15.31
2023-05-15T01:45:23.022Z,15.31
2023-05-15T01:46:21.481Z,15.30
2023-05-15T01:47:21.754Z,15.30
2023-05-15T01:48:21.391Z,15.28
2023-05-15T01:49:21.657Z,15.28
2023-05-15T01:50:21.399Z,15.26
2023-05-15T01:51:21.378Z,15.26
2023-05-15T01:52:21.349Z,15.25
2023-05-15T01:53:21.363Z,15.25
2023-05-15T01:54:21.609Z,15.25
2023-05-15T01:55:21.378Z,15.24
2023-05-15T01:56:21.590Z,15.22
2023-05-15T01:57:21.294Z,15.21
2023-05-15T01:58:21.567Z,15.20
2023-05-15T01:59:21.545Z,15.19
2023-05-15T02:00:21.288Z,15.19
2023-05-15T02:01:21.575Z,15.17
2023-05-15T02:02:20.593Z,15.15
2023-05-15T02:03:20.614Z,15.14
2023-05-15T02:04:20.548Z,15.11
2023-05-15T02:05:21.478Z,15.11
2023-05-15T02:06:20.543Z,15.09
2023-05-15T02:07:20.548Z,15.07
2023-05-15T02:08:20.498Z,15.05
2023-05-15T02:09:20.488Z,15.04
2023-05-15T02:10:20.511Z,15.03
2023-05-15T02:11:20.497Z,15.01
2023-05-15T02:12:21.408Z,14.99
2023-05-15T02:13:22.394Z,14.98
2023-05-15T02:14:21.387Z,14.96
2023-05-15T02:15:21.096Z,14.95
2023-05-15T02:16:21.505Z,14.93
2023-05-15T02:17:21.107Z,14.91
2023-05-15T02:18:21.087Z,14.89
2023-05-15T02:19:20.391Z,14.87
2023-05-15T02:20:21.069Z,14.86
2023-05-15T02:21:21.047Z,14.85
2023-05-15T02:22:20.358Z,14.84
2023-05-15T02:23:21.266Z,14.82
2023-05-15T02:24:21.021Z,14.81
2023-05-15T02:25:22.320Z,14.79
2023-05-15T02:26:20.995Z,14.78
2023-05-15T02:27:20.998Z,14.76
2023-05-15T02:28:20.976Z,14.75
2023-05-15T02:29:20.967Z,14.73
2023-05-15T02:30:20.970Z,14.71
2023-05-15T02:31:23.054Z,14.70
2023-05-15T02:32:20.232Z,14.69
2023-05-15T02:33:20.926Z,14.67
2023-05-15T02:34:20.891Z,14.66
2023-05-15T02:35:20.894Z,14.65
2023-05-15T02:36:20.216Z,14.63
2023-05-15T02:37:20.879Z,14.63
2023-05-15T02:38:20.848Z,14.61
2023-05-15T02:39:20.186Z,14.61
2023-05-15T02:40:20.848Z,14.60
2023-05-15T02:41:20.850Z,14.59
2023-05-15T02:42:20.842Z,14.59
2023-05-15T02:43:20.803Z,14.58
2023-05-15T02:44:20.811Z,14.58
2023-05-15T02:45:20.119Z,14.56
2023-05-15T02:46:20.218Z,14.56
2023-05-15T02:47:20.768Z,14.54
2023-05-15T02:48:20.739Z,14.52
2023-05-15T02:49:20.752Z,14.51
2023-05-15T02:50:20.739Z,14.49
2023-05-15T02:51:20.049Z,14.47
2023-05-15T02:52:21.006Z,14.45
2023-05-15T02:53:20.690Z,14.44
2023-05-15T02:54:21.947Z,14.44
2023-05-15T02:55:19.991Z,14.42
2023-05-15T02:56:20.667Z,14.44
2023-05-15T02:57:19.995Z,14.42
2023-05-15T02:58:19.967Z,14.41
2023-05-15T02:59:20.653Z,14.40
2023-05-15T03:00:19.936Z,14.39
2023-05-15T03:01:19.976Z,14.37
2023-05-15T03:02:20.618Z,14.35
2023-05-15T03:03:19.974Z,14.35
2023-05-15T03:04:20.608Z,14.34
2023-05-15T03:05:20.572Z,14.33
2023-05-15T03:06:19.934Z,14.31
2023-05-15T03:07:20.529Z,14.30
2023-05-15T03:08:19.850Z,14.28
2023-05-15T03:09:20.784Z,14.28
2023-05-15T03:10:20.775Z,14.26
2023-05-15T03:11:21.350Z,14.26
2023-05-15T03:12:20.485Z,14.26
2023-05-15T03:13:20.479Z,14.26
2023-05-15T03:14:19.792Z,14.25
2023-05-15T03:15:19.776Z,14.25
2023-05-15T03:16:20.452Z,14.25
2023-05-15T03:17:20.437Z,14.24
2023-05-15T03:18:19.866Z,14.25
2023-05-15T03:19:19.729Z,14.23
2023-05-15T03:20:20.382Z,14.24
2023-05-15T03:21:20.371Z,14.22
2023-05-15T03:22:20.380Z,14.21
2023-05-15T03:23:20.425Z,14.20
2023-05-15T03:24:19.686Z,14.19
2023-05-15T03:25:19.710Z,14.19
2023-05-15T03:26:20.337Z,14.18
2023-05-15T03:27:20.325Z,14.18
2023-05-15T03:28:20.320Z,14.17
2023-05-15T03:29:19.620Z,14.18
2023-05-15T03:30:20.346Z,14.19
2023-05-15T03:31:19.657Z,14.20
2023-05-15T03:32:20.265Z,14.22
2023-05-15T03:33:19.573Z,14.23
2023-05-15T03:34:20.226Z,14.23
2023-05-15T03:35:20.244Z,14.25
2023-05-15T03:36:19.622Z,14.26
2023-05-15T03:37:20.215Z,14.29
2023-05-15T03:38:20.205Z,14.31
2023-05-15T03:39:20.197Z,14.34
2023-05-15T03:40:20.195Z,14.35
2023-05-15T03:41:19.494Z,14.38
2023-05-15T03:42:19.487Z,14.40
2023-05-15T03:43:19.471Z,14.43
2023-05-15T03:44:20.130Z,14.44
2023-05-15T03:45:19.460Z,14.47
2023-05-15T03:46:20.211Z,14.49
2023-05-15T03:47:19.425Z,14.52
2023-05-15T03:48:20.073Z,14.55
2023-05-15T03:49:19.447Z,14.57
2023-05-15T03:50:19.377Z,14.59
2023-05-15T03:51:20.068Z,14.62
2023-05-15T03:52:20.060Z,14.62
2023-05-15T03:53:20.059Z,14.63
2023-05-15T03:54:19.341Z,14.62
2023-05-15T03:55:20.765Z,14.63
2023-05-15T03:56:19.322Z,14.64
2023-05-15T03:57:20.053Z,14.64
2023-05-15T03:58:19.395Z,14.65
2023-05-15T03:59:19.295Z,14.66
2023-05-15T04:00:19.957Z,14.68
2023-05-15T04:01:19.984Z,14.70
2023-05-15T04:02:19.985Z,14.71
2023-05-15T04:03:19.436Z,14.72
2023-05-15T04:04:19.224Z,14.73
2023-05-15T04:05:21.228Z,14.74
2023-05-15T04:06:21.132Z,14.76
2023-05-15T04:07:21.158Z,14.78
2023-05-15T04:08:20.147Z,14.79
2023-05-15T04:09:19.862Z,14.81
2023-05-15T04:10:19.197Z,14.84
2023-05-15T04:11:19.166Z,14.86
2023-05-15T04:12:19.173Z,14.85
2023-05-15T04:13:19.124Z,14.84
2023-05-15T04:14:19.829Z,14.83
2023-05-15T04:15:19.808Z,14.82
2023-05-15T04:16:19.799Z,14.82
2023-05-15T04:17:19.158Z,14.82
2023-05-15T04:18:19.091Z,14.82
2023-05-15T04:19:19.848Z,14.83
2023-05-15T04:20:19.067Z,14.82
2023-05-15T04:21:19.714Z,14.84
2023-05-15T04:22:19.732Z,14.84
2023-05-15T04:23:19.028Z,14.83
2023-05-15T04:24:19.051Z,14.84
2023-05-15T04:25:19.693Z,14.84
2023-05-15T04:26:19.705Z,14.84
2023-05-15T04:27:18.994Z,14.85
2023-05-15T04:28:18.977Z,14.84
2023-05-15T04:29:18.964Z,14.84
2023-05-15T04:30:18.971Z,14.82
2023-05-15T04:31:18.977Z,14.82
2023-05-15T04:32:18.956Z,14.81
2023-05-15T04:33:18.935Z,14.80
2023-05-15T04:34:18.921Z,14.78
2023-05-15T04:35:19.860Z,14.77
2023-05-15T04:36:18.871Z,14.75
2023-05-15T04:37:18.876Z,14.75
2023-05-15T04:38:19.569Z,14.73
2023-05-15T04:39:19.530Z,14.72
2023-05-15T04:40:19.507Z,14.72
2023-05-15T04:41:19.571Z,14.70
2023-05-15T04:42:20.289Z,14.71
2023-05-15T04:43:18.795Z,14.71
2023-05-15T04:44:19.456Z,14.71
2023-05-15T04:45:18.825Z,14.70
2023-05-15T04:46:18.800Z,14.70
2023-05-15T04:47:18.817Z,14.71
2023-05-15T04:48:19.435Z,14.73
2023-05-15T04:49:19.406Z,14.73
2023-05-15T04:50:18.733Z,14.75
2023-05-15T04:51:18.785Z,14.75
2023-05-15T04:52:19.655Z,14.77
2023-05-15T04:53:18.713Z,14.80
2023-05-15T04:54:19.352Z,14.84
2023-05-15T04:55:19.356Z,14.90
2023-05-15T04:56:19.343Z,14.92
2023-05-15T04:57:18.655Z,14.94
2023-05-15T04:58:18.669Z,14.97
2023-05-15T04:59:19.309Z,15.00
2023-05-15T05:00:19.307Z,15.02
2023-05-15T05:01:19.317Z,15.03
2023-05-15T05:02:18.721Z,15.06
2023-05-15T05:03:19.318Z,15.08
2023-05-15T05:04:19.254Z,15.10
2023-05-15T05:05:19.509Z,15.15
2023-05-15T05:06:19.236Z,15.17
2023-05-15T05:07:18.563Z,15.21
2023-05-15T05:08:19.198Z,15.24
2023-05-15T05:09:19.200Z,15.28
2023-05-15T05:10:18.509Z,15.30
2023-05-15T05:11:18.503Z,15.30
2023-05-15T05:12:19.151Z,15.30
2023-05-15T05:13:19.161Z,15.28
2023-05-15T05:14:18.462Z,15.27
2023-05-15T05:15:19.139Z,15.26
2023-05-15T05:16:19.218Z,15.26
2023-05-15T05:17:19.095Z,15.28
2023-05-15T05:18:19.110Z,15.31
2023-05-15T05:19:18.498Z,15.35
2023-05-15T05:20:18.400Z,15.39
2023-05-15T05:21:18.418Z,15.42
2023-05-15T05:22:19.050Z,15.44
2023-05-15T05:23:19.050Z,15.47
2023-05-15T05:24:18.371Z,15.52
2023-05-15T05:25:18.349Z,15.55
2023-05-15T05:26:18.361Z,15.58
2023-05-15T05:27:19.012Z,15.61
2023-05-15T05:28:19.004Z,15.64
2023-05-15T05:29:18.310Z,15.65
2023-05-15T05:30:18.969Z,15.65
2023-05-15T05:31:18.319Z,15.67
2023-05-15T05:32:18.985Z,15.72
2023-05-15T05:33:20.213Z,15.78
2023-05-15T05:34:18.248Z,15.87
2023-05-15T05:35:18.910Z,15.93
2023-05-15T05:36:18.232Z,16.01
2023-05-15T05:37:18.919Z,16.05
2023-05-15T05:38:18.887Z,16.09
2023-05-15T05:39:18.884Z,16.12
2023-05-15T05:40:18.859Z,16.16
2023-05-15T05:41:18.187Z,16.23
2023-05-15T05:42:19.118Z,16.28
2023-05-15T05:43:19.098Z,16.32
2023-05-15T05:44:18.164Z,16.37
2023-05-15T05:45:18.795Z,16.44
2023-05-15T05:46:18.874Z,16.50
2023-05-15T05:47:18.798Z,16.55
2023-05-15T05:48:18.102Z,16.60
2023-05-15T05:49:18.757Z,16.64
2023-05-15T05:50:18.760Z,16.68
2023-05-15T05:51:18.750Z,16.70
2023-05-15T05:52:18.089Z,16.71
2023-05-15T05:53:18.041Z,16.69
2023-05-15T05:54:18.708Z,16.69
2023-05-15T05:55:18.022Z,16.68
2023-05-15T05:56:18.085Z,16.66
2023-05-15T05:57:18.016Z,16.65
2023-05-15T05:58:24.850Z,16.63
2023-05-15T05:59:18.994Z,16.61
2023-05-15T06:00:17.974Z,16.57
2023-05-15T06:01:18.657Z,16.57
2023-05-15T06:02:18.701Z,16.56
2023-05-15T06:03:18.668Z,16.58
2023-05-15T06:04:18.630Z,16.61
2023-05-15T06:05:18.593Z,16.64
2023-05-15T06:06:17.899Z,16.66
2023-05-15T06:07:18.575Z,16.65
2023-05-15T06:08:17.912Z,16.62
2023-05-15T06:09:17.862Z,16.61
2023-05-15T06:10:18.805Z,16.62
2023-05-15T06:11:18.535Z,16.63
2023-05-15T06:12:19.221Z,16.65
2023-05-15T06:13:18.786Z,16.68
2023-05-15T06:14:19.441Z,16.70
2023-05-15T06:15:17.808Z,16.74
2023-05-15T06:16:17.804Z,16.78
2023-05-15T06:17:18.511Z,16.83
2023-05-15T06:18:17.777Z,16.86
2023-05-15T06:19:17.877Z,16.89
2023-05-15T06:20:18.428Z,16.93
2023-05-15T06:21:17.754Z,16.96
2023-05-15T06:22:18.395Z,17.02
2023-05-15T06:23:17.711Z,17.05
2023-05-15T06:24:18.391Z,17.09
2023-05-15T06:25:18.379Z,17.12
2023-05-15T06:26:18.351Z,17.17
2023-05-15T06:27:18.338Z,17.21
2023-05-15T06:28:18.347Z,17.25
2023-05-15T06:29:18.332Z,17.32
2023-05-15T06:30:17.636Z,17.39
2023-05-15T06:31:18.330Z,17.46
2023-05-15T06:32:18.299Z,17.48
2023-05-15T06:33:18.355Z,17.49
2023-05-15T06:34:18.285Z,17.51
2023-05-15T06:35:17.581Z,17.50
2023-05-15T06:36:17.597Z,17.49
2023-05-15T06:37:18.247Z,17.47
2023-05-15T06:38:18.260Z,17.45
2023-05-15T06:39:19.505Z,17.45
2023-05-15T06:40:17.536Z,17.47
2023-05-15T06:41:17.524Z,17.48
2023-05-15T06:42:18.477Z,17.49
2023-05-15T06:43:17.513Z,17.51
2023-05-15T06:44:18.175Z,17.52
2023-05-15T06:45:18.185Z,17.56
2023-05-15T06:46:17.511Z,17.60
2023-05-15T06:47:17.457Z,17.65
2023-05-15T06:48:18.191Z,17.68
2023-05-15T06:49:18.144Z,17.74
2023-05-15T06:50:18.100Z,17.80
2023-05-15T06:51:17.408Z,17.87
2023-05-15T06:52:17.393Z,17.92
2023-05-15T06:53:17.403Z,17.97
2023-05-15T06:54:18.051Z,18.01
2023-05-15T06:55:18.047Z,18.05
2023-05-15T06:56:18.058Z,18.09
2023-05-15T06:57:17.343Z,18.13
2023-05-15T06:58:17.334Z,18.15
2023-05-15T06:59:17.993Z,18.20
2023-05-15T07:00:18.006Z,18.25
2023-05-15T07:01:18.005Z,18.31
2023-05-15T07:02:17.363Z,18.36
2023-05-15T07:03:17.316Z,18.45
2023-05-15T07:04:17.330Z,18.52
2023-05-15T07:05:17.309Z,18.55
2023-05-15T07:06:17.251Z,18.58
2023-05-15T07:07:17.245Z,18.56
2023-05-15T07:08:17.894Z,18.53
2023-05-15T07:09:17.877Z,18.53
2023-05-15T07:10:17.223Z,18.57
2023-05-15T07:11:17.199Z,18.61
2023-05-15T07:12:19.122Z,18.67
2023-05-15T07:13:17.836Z,18.78
2023-05-15T07:14:17.890Z,18.87
2023-05-15T07:15:17.160Z,18.92
2023-05-15T07:16:18.567Z,18.95
2023-05-15T07:17:17.906Z,19.00
2023-05-15T07:18:17.814Z,19.03
2023-05-15T07:19:17.840Z,19.00
2023-05-15T07:20:17.089Z,18.98
2023-05-15T07:21:17.083Z,18.96
2023-05-15T07:22:17.112Z,18.95
2023-05-15T07:23:17.082Z,18.95
2023-05-15T07:24:17.732Z,18.91
2023-05-15T07:25:17.749Z,18.88
2023-05-15T07:26:27.582Z,18.85
2023-05-15T07:27:18.686Z,18.83
2023-05-15T07:28:17.018Z,18.79
2023-05-15T07:29:17.680Z,18.73
2023-05-15T07:30:17.707Z,18.67
2023-05-15T07:31:17.706Z,18.61
2023-05-15T07:32:17.147Z,18.55
2023-05-15T07:33:16.955Z,18.51
2023-05-15T07:34:17.901Z,18.46
2023-05-15T07:35:16.952Z,18.41
2023-05-15T07:36:17.591Z,18.38
2023-05-15T07:37:17.183Z,18.36
2023-05-15T07:38:17.600Z,18.34
2023-05-15T07:39:17.600Z,18.33
2023-05-15T07:40:17.558Z,18.31
2023-05-15T07:41:17.529Z,18.28
2023-05-15T07:42:17.549Z,18.25
2023-05-15T07:43:16.844Z,18.21
2023-05-15T07:44:17.525Z,18.19
2023-05-15T07:45:16.887Z,18.19
2023-05-15T07:46:17.525Z,18.19
2023-05-15T07:47:17.488Z,18.19
2023-05-15T07:48:17.471Z,18.20
2023-05-15T07:49:16.837Z,18.19
2023-05-15T07:50:17.446Z,18.20
2023-05-15T07:51:16.784Z,18.18
2023-05-15T07:52:17.467Z,18.17
2023-05-15T07:53:17.416Z,18.16
2023-05-15T07:54:16.730Z,18.15
2023-05-15T07:55:17.381Z,18.15
2023-05-15T07:56:17.716Z,18.17
2023-05-15T07:57:17.383Z,18.19
2023-05-15T07:58:17.375Z,18.21
2023-05-15T07:59:17.379Z,18.24
2023-05-15T08:00:17.324Z,18.28
2023-05-15T08:01:16.644Z,18.33
2023-05-15T08:02:16.690Z,18.46
2023-05-15T08:03:17.416Z,18.60
2023-05-15T08:04:17.369Z,18.75
2023-05-15T08:05:17.576Z,18.88
2023-05-15T08:06:17.550Z,19.02
2023-05-15T08:07:17.285Z,19.12
2023-05-15T08:08:17.257Z,19.20
2023-05-15T08:09:17.234Z,19.25
2023-05-15T08:10:17.511Z,19.28
2023-05-15T08:11:17.246Z,19.31
2023-05-15T08:12:17.229Z,19.33
2023-05-15T08:13:17.204Z,19.34
2023-05-15T08:14:17.213Z,19.35
2023-05-15T08:15:17.454Z,19.36
2023-05-15T08:16:17.505Z,19.36
2023-05-15T08:17:17.444Z,19.38
2023-05-15T08:18:17.132Z,19.40
2023-05-15T08:19:17.448Z,19.41
2023-05-15T08:20:17.125Z,19.43
2023-05-15T08:21:17.394Z,19.47
2023-05-15T08:22:17.138Z,19.47
2023-05-15T08:23:18.632Z,19.46
2023-05-15T08:24:17.405Z,19.45
2023-05-15T08:25:17.072Z,19.44
2023-05-15T08:26:17.063Z,19.41
2023-05-15T08:27:16.379Z,19.36
2023-05-15T08:28:16.388Z,19.30
2023-05-15T08:29:17.033Z,19.25
2023-05-15T08:30:17.018Z,19.21
2023-05-15T08:31:17.036Z,19.19
2023-05-15T08:32:16.976Z,19.19
2023-05-15T08:33:16.973Z,19.22
2023-05-15T08:34:16.989Z,19.25
2023-05-15T08:35:16.966Z,19.27
2023-05-15T08:36:17.022Z,19.31
2023-05-15T08:37:16.931Z,19.38
2023-05-15T08:38:17.250Z,19.45
2023-05-15T08:39:17.162Z,19.53
2023-05-15T08:40:18.619Z,19.55
2023-05-15T08:41:18.147Z,19.55
2023-05-15T08:42:16.871Z,19.59
2023-05-15T08:43:16.900Z,19.64
2023-05-15T08:44:17.132Z,19.71
2023-05-15T08:45:17.138Z,19.83
2023-05-15T08:46:17.155Z,19.94
2023-05-15T08:47:17.096Z,20.05
2023-05-15T08:48:17.667Z,20.15
2023-05-15T08:49:16.899Z,20.24
2023-05-15T08:50:16.175Z,20.33
2023-05-15T08:51:16.145Z,20.39
2023-05-15T08:52:17.073Z,20.45
2023-05-15T08:53:16.796Z,20.51
2023-05-15T08:54:16.778Z,20.55
2023-05-15T08:55:16.777Z,20.60
2023-05-15T08:56:17.028Z,20.61
2023-05-15T08:57:16.728Z,20.59
2023-05-15T08:58:16.718Z,20.56
2023-05-15T08:59:16.705Z,20.52
2023-05-15T09:00:16.677Z,20.52
2023-05-15T09:01:16.769Z,20.51
2023-05-15T09:02:16.669Z,20.52
2023-05-15T09:03:16.889Z,20.52
2023-05-15T09:04:16.933Z,20.51
2023-05-15T09:05:16.627Z,20.50
2023-05-15T09:06:16.627Z,20.51
2023-05-15T09:07:16.877Z,20.54
2023-05-15T09:08:16.874Z,20.55
2023-05-15T09:09:16.855Z,20.57
2023-05-15T09:10:16.572Z,20.57
2023-05-15T09:11:16.574Z,20.60
2023-05-15T09:12:16.803Z,20.68
2023-05-15T09:13:16.814Z,20.81
2023-05-15T09:14:16.808Z,20.94
2023-05-15T09:15:16.544Z,21.07
2023-05-15T09:16:15.867Z,21.17
2023-05-15T09:17:16.507Z,21.22
2023-05-15T09:18:15.843Z,21.25
2023-05-15T09:19:16.603Z,21.22
2023-05-15T09:20:16.489Z,21.18
2023-05-15T09:21:16.463Z,21.14
2023-05-15T09:22:16.731Z,21.22
2023-05-15T09:23:16.432Z,21.38
2023-05-15T09:24:16.690Z,21.49
2023-05-15T09:25:16.649Z,21.56
2023-05-15T09:26:16.412Z,21.61
2023-05-15T09:27:16.401Z,21.71
2023-05-15T09:28:16.650Z,21.98
2023-05-15T09:29:18.291Z,22.33
2023-05-15T09:30:16.368Z,22.73
2023-05-15T09:31:16.502Z,23.06
2023-05-15T09:32:16.410Z,23.24
2023-05-15T09:33:16.615Z,23.48
2023-05-15T09:34:16.330Z,23.83
2023-05-15T09:35:16.327Z,24.39
2023-05-15T09:36:15.618Z,24.71
2023-05-15T09:37:16.275Z,25.08
2023-05-15T09:38:16.262Z,25.55
2023-05-15T09:39:15.563Z,26.28
2023-05-15T09:40:16.261Z,26.95
2023-05-15T09:41:16.261Z,27.59
2023-05-15T09:42:16.224Z,28.11
2023-05-15T09:43:16.230Z,28.59
2023-05-15T09:44:15.529Z,28.61
2023-05-15T09:45:15.550Z,28.56
2023-05-15T09:46:15.635Z,28.54
2023-05-15T09:47:15.588Z,28.50
2023-05-15T09:48:16.297Z,28.36
2023-05-15T09:49:15.477Z,28.08
2023-05-15T09:50:16.151Z,27.89
2023-05-15T09:51:15.473Z,27.75
2023-05-15T09:52:15.445Z,27.65
2023-05-15T09:53:21.383Z,27.55
2023-05-15T09:54:17.328Z,27.45
2023-05-15T09:55:16.099Z,27.37
2023-05-15T09:56:15.444Z,27.37
2023-05-15T09:57:15.396Z,27.34
2023-05-15T09:58:16.065Z,27.33
2023-05-15T09:59:15.388Z,27.42
2023-05-15T10:00:16.026Z,27.45
2023-05-15T10:01:16.118Z,27.42
2023-05-15T10:02:16.017Z,27.29
2023-05-15T10:03:16.010Z,27.07
2023-05-15T10:04:15.316Z,26.81
2023-05-15T10:05:16.011Z,26.59
2023-05-15T10:06:16.073Z,26.45
2023-05-15T10:07:15.274Z,26.32
2023-05-15T10:08:15.290Z,26.19
2023-05-15T10:09:15.947Z,26.08
2023-05-15T10:10:15.914Z,26.04
2023-05-15T10:11:15.938Z,26.17
2023-05-15T10:12:15.907Z,26.51
2023-05-15T10:13:15.220Z,26.86
2023-05-15T10:14:15.233Z,26.99
2023-05-15T10:15:15.214Z,27.51
2023-05-15T10:16:15.935Z,27.82
2023-05-15T10:17:15.856Z,28.50
2023-05-15T10:18:15.853Z,29.22
2023-05-15T10:19:15.883Z,29.46
2023-05-15T10:20:15.833Z,29.89
2023-05-15T10:21:15.820Z,30.88
2023-05-15T10:22:15.803Z,30.95
2023-05-15T10:23:15.788Z,30.99
2023-05-15T10:24:15.776Z,31.10
2023-05-15T10:25:15.089Z,32.19
2023-05-15T10:26:15.074Z,32.47
2023-05-15T10:27:15.056Z,33.77
2023-05-15T10:28:15.726Z,34.64
2023-05-15T10:29:15.706Z,35.25
2023-05-15T10:30:15.051Z,35.96
2023-05-15T10:31:15.083Z,36.61
2023-05-15T10:32:15.697Z,37.05
2023-05-15T10:33:15.070Z,37.60
2023-05-15T10:34:14.996Z,38.05
2023-05-15T10:35:15.682Z,38.46
2023-05-15T10:36:15.649Z,38.71
2023-05-15T10:37:14.944Z,38.63
2023-05-15T10:38:14.964Z,38.57
2023-05-15T10:39:15.030Z,38.51
2023-05-15T10:40:14.937Z,38.30
2023-05-15T10:41:17.372Z,37.49
2023-05-15T10:42:15.567Z,36.73
2023-05-15T10:43:14.920Z,35.70
2023-05-15T10:44:15.565Z,34.51
2023-05-15T10:45:15.555Z,33.27
2023-05-15T10:46:15.546Z,32.14
2023-05-15T10:47:15.600Z,31.25
2023-05-15T10:48:14.860Z,30.56
2023-05-15T10:49:15.506Z,30.01
2023-05-15T10:50:14.814Z,29.50
2023-05-15T10:51:14.804Z,29.09
2023-05-15T10:52:15.457Z,28.76
2023-05-15T10:53:15.464Z,28.49
2023-05-15T10:54:15.453Z,28.24
2023-05-15T10:55:14.780Z,28.00
2023-05-15T10:56:14.795Z,27.77
2023-05-15T10:57:16.697Z,27.57
2023-05-15T10:58:14.725Z,27.40
2023-05-15T10:59:14.712Z,27.25
2023-05-15T11:00:14.744Z,27.10
2023-05-15T11:01:14.727Z,26.97
2023-05-15T11:02:15.395Z,26.82
2023-05-15T11:03:15.561Z,26.67
2023-05-15T11:04:15.383Z,26.53
2023-05-15T11:05:15.338Z,26.41
2023-05-15T11:06:15.305Z,26.30
2023-05-15T11:07:14.625Z,26.16
2023-05-15T11:08:15.337Z,26.01
2023-05-15T11:09:15.321Z,25.88
2023-05-15T11:10:15.258Z,25.77
2023-05-15T11:11:15.257Z,25.69
2023-05-15T11:12:15.261Z,25.61
2023-05-15T11:13:15.247Z,25.52
2023-05-15T11:14:15.249Z,25.42
2023-05-15T11:15:14.567Z,25.33
2023-05-15T11:16:15.274Z,25.26
2023-05-15T11:17:17.292Z,25.19
2023-05-15T11:18:14.577Z,25.13
2023-05-15T11:19:15.209Z,25.07
2023-05-15T11:20:15.162Z,25.05
2023-05-15T11:21:14.473Z,25.03
2023-05-15T11:22:14.493Z,25.02
2023-05-15T11:23:15.143Z,25.02
2023-05-15T11:24:15.105Z,25.01
2023-05-15T11:25:14.456Z,25.00
2023-05-15T11:26:15.101Z,25.01
2023-05-15T11:27:15.094Z,25.01
2023-05-15T11:28:15.083Z,25.00
2023-05-15T11:29:15.055Z,25.00
2023-05-15T11:30:14.437Z,24.94
2023-05-15T11:31:15.055Z,24.91
2023-05-15T11:32:15.048Z,24.91
2023-05-15T11:33:14.422Z,24.92
2023-05-15T11:34:14.996Z,24.94
2023-05-15T11:35:14.323Z,24.94
2023-05-15T11:36:14.999Z,24.92
2023-05-15T11:37:14.988Z,24.91
2023-05-15T11:38:14.287Z,24.86
2023-05-15T11:39:14.968Z,24.81
2023-05-15T11:40:14.952Z,24.79
2023-05-15T11:41:14.245Z,24.77
2023-05-15T11:42:14.245Z,24.74
2023-05-15T11:43:14.898Z,24.71
2023-05-15T11:44:14.909Z,24.70
2023-05-15T11:45:14.895Z,24.71
2023-05-15T11:46:14.323Z,24.71
2023-05-15T11:47:14.871Z,24.72
2023-05-15T11:48:14.234Z,24.74
2023-05-15T11:49:14.849Z,24.76
2023-05-15T11:50:14.156Z,24.73
2023-05-15T11:51:14.160Z,24.68
2023-05-15T11:52:14.801Z,24.68
2023-05-15T11:53:14.804Z,24.76
2023-05-15T11:54:14.821Z,24.83
2023-05-15T11:55:14.787Z,24.91
2023-05-15T11:56:14.122Z,25.01
2023-05-15T11:57:14.101Z,25.11
2023-05-15T11:58:14.762Z,25.23
2023-05-15T11:59:14.750Z,25.32
2023-05-15T12:00:14.737Z,25.41
2023-05-15T12:01:14.721Z,25.46
2023-05-15T12:02:14.704Z,25.50
2023-05-15T12:03:14.208Z,25.54
2023-05-15T12:04:14.888Z,25.57
2023-05-15T12:05:14.693Z,25.57
2023-05-15T12:06:14.656Z,25.58
2023-05-15T12:07:14.642Z,25.59
2023-05-15T12:08:14.646Z,25.59
2023-05-15T12:09:13.952Z,25.60
2023-05-15T12:10:13.939Z,25.62
2023-05-15T12:11:14.606Z,25.65
2023-05-15T12:12:14.661Z,25.69
2023-05-15T12:13:13.905Z,25.74
2023-05-15T12:14:14.589Z,25.78
2023-05-15T12:15:13.882Z,25.81
2023-05-15T12:16:13.913Z,25.80
2023-05-15T12:17:14.553Z,25.82
2023-05-15T12:18:14.556Z,25.83
2023-05-15T12:19:14.542Z,25.81
2023-05-15T12:20:13.840Z,25.80
2023-05-15T12:21:13.840Z,25.79
2023-05-15T12:22:14.504Z,25.79
2023-05-15T12:23:14.487Z,25.80
2023-05-15T12:24:13.815Z,25.78
2023-05-15T12:25:14.451Z,25.79
2023-05-15T12:26:14.459Z,25.78
2023-05-15T12:27:13.793Z,25.78
2023-05-15T12:28:14.511Z,25.76
2023-05-15T12:29:13.733Z,25.70
2023-05-15T12:30:14.432Z,25.67
2023-05-15T12:31:14.528Z,25.65
2023-05-15T12:32:13.848Z,25.63
2023-05-15T12:33:13.731Z,25.63
2023-05-15T12:34:13.701Z,25.63
2023-05-15T12:35:14.441Z,25.64
2023-05-15T12:36:14.353Z,25.65
2023-05-15T12:37:14.352Z,25.66
2023-05-15T12:38:14.337Z,25.64
2023-05-15T12:39:13.643Z,25.59
2023-05-15T12:40:14.325Z,25.55
2023-05-15T12:41:13.595Z,25.54
2023-05-15T12:42:14.287Z,25.50
2023-05-15T12:43:13.600Z,25.43
2023-05-15T12:44:13.600Z,25.37
2023-05-15T12:45:13.574Z,25.34
2023-05-15T12:46:14.314Z,25.34
2023-05-15T12:47:14.236Z,25.37
2023-05-15T12:48:14.272Z,25.42
2023-05-15T12:49:14.216Z,25.47
2023-05-15T12:50:13.522Z,25.53
2023-05-15T12:51:13.505Z,25.53
2023-05-15T12:52:13.511Z,25.54